createdAt,value
2017-11-04T00:01:02.498Z,6.60
2017-11-04T00:03:29.044Z,6.60
2017-11-04T00:05:55.347Z,6.60
2017-11-04T00:08:22.437Z,6.60
2017-11-04T00:10:48.783Z,6.50
2017-11-04T00:13:15.115Z,6.60
2017-11-04T00:15:41.466Z,6.60
2017-11-04T00:18:07.805Z,6.60
2017-11-04T00:20:34.450Z,6.60
2017-11-04T00:23:01.541Z,6.60
2017-11-04T00:25:27.829Z,6.60
2017-11-04T00:27:55.025Z,6.70
2017-11-04T00:30:21.356Z,6.60
2017-11-04T00:32:47.654Z,6.70
2017-11-04T00:35:14.749Z,6.70
2017-11-04T00:37:41.099Z,6.60
2017-11-04T00:40:07.389Z,6.60
2017-11-04T00:42:33.681Z,6.70
2017-11-04T00:45:00.712Z,6.70
2017-11-04T00:47:27.057Z,6.70
2017-11-04T00:49:54.091Z,6.70
2017-11-04T00:52:21.131Z,6.70
2017-11-04T00:54:47.478Z,6.70
2017-11-04T00:57:13.812Z,6.70
2017-11-04T00:59:40.912Z,6.70
2017-11-04T01:02:07.212Z,6.70
2017-11-04T01:04:33.533Z,6.70
2017-11-04T01:07:00.559Z,6.60
2017-11-04T01:09:27.677Z,6.60
2017-11-04T01:11:53.973Z,6.60
2017-11-04T01:14:20.321Z,6.60
2017-11-04T01:16:46.651Z,6.60
2017-11-04T01:19:12.988Z,6.60
2017-11-04T01:21:39.328Z,6.50
2017-11-04T01:24:05.621Z,6.50
2017-11-04T01:26:31.950Z,6.50
2017-11-04T01:28:58.261Z,6.50
2017-11-04T01:31:25.318Z,6.50
2017-11-04T01:33:52.332Z,6.50
2017-11-04T01:36:18.662Z,6.50
2017-11-04T01:38:45.672Z,6.50
2017-11-04T01:41:11.983Z,6.40
2017-11-04T01:43:38.355Z,6.50
2017-11-04T01:46:04.696Z,6.50
2017-11-04T01:48:31.012Z,6.40
2017-11-04T01:50:57.280Z,6.40
2017-11-04T01:53:24.059Z,6.40
2017-11-04T01:55:50.326Z,6.40
2017-11-04T01:58:18.128Z,6.30
2017-11-04T02:00:45.169Z,6.20
2017-11-04T02:03:12.192Z,6.20
2017-11-04T02:05:38.485Z,6.10
2017-11-04T02:08:04.872Z,6.10
2017-11-04T02:10:31.916Z,6.00
2017-11-04T02:12:59.090Z,6.00
2017-11-04T02:15:25.467Z,6.00
2017-11-04T02:17:51.771Z,6.00
2017-11-04T02:20:18.064Z,6.00
2017-11-04T02:22:44.392Z,6.00
2017-11-04T02:25:11.432Z,6.00
2017-11-04T02:27:38.502Z,6.00
2017-11-04T02:30:04.842Z,6.00
2017-11-04T02:32:31.273Z,5.90
2017-11-04T02:34:57.627Z,5.90
2017-11-04T02:37:23.929Z,5.90
2017-11-04T02:39:50.233Z,5.90
2017-11-04T02:42:17.305Z,5.90
2017-11-04T02:44:43.576Z,5.90
2017-11-04T02:47:09.900Z,5.90
2017-11-04T02:49:36.220Z,6.00
2017-11-04T02:52:02.596Z,6.00
2017-11-04T02:54:29.661Z,6.10
2017-11-04T02:56:56.689Z,6.20
2017-11-04T02:59:22.987Z,6.10
2017-11-04T03:01:49.276Z,6.20
2017-11-04T03:04:15.588Z,6.30
2017-11-04T03:06:42.637Z,6.30
2017-11-04T03:09:09.781Z,6.30
2017-11-04T03:11:36.844Z,6.30
2017-11-04T03:14:03.906Z,6.30
2017-11-04T03:16:30.201Z,6.30
2017-11-04T03:18:56.596Z,6.20
2017-11-04T03:21:22.960Z,6.20
2017-11-04T03:23:49.299Z,6.20
2017-11-04T03:26:15.585Z,6.20
2017-11-04T03:28:41.885Z,6.20
2017-11-04T03:31:08.183Z,6.10
2017-11-04T03:33:34.472Z,6.10
2017-11-04T03:36:00.864Z,6.10
2017-11-04T03:38:28.042Z,6.00
2017-11-04T03:40:54.319Z,6.00
2017-11-04T03:43:20.900Z,6.00
2017-11-04T03:45:47.220Z,6.00
2017-11-04T03:48:13.608Z,6.00
2017-11-04T03:50:39.860Z,6.00
2017-11-04T03:53:06.902Z,6.10
2017-11-04T03:55:33.932Z,6.10
2017-11-04T03:58:00.259Z,6.10
2017-11-04T04:00:26.808Z,6.10
2017-11-04T04:02:53.152Z,6.10
2017-11-04T04:05:20.231Z,6.20
2017-11-04T04:07:46.620Z,6.10
2017-11-04T04:10:12.981Z,6.20
2017-11-04T04:12:39.303Z,6.30
2017-11-04T04:15:05.677Z,6.30
2017-11-04T04:17:31.986Z,6.30
2017-11-04T04:19:58.297Z,6.30
2017-11-04T04:22:24.594Z,6.30
2017-11-04T04:24:50.910Z,6.30
2017-11-04T04:27:17.201Z,6.20
2017-11-04T04:29:43.528Z,6.20
2017-11-04T04:32:09.836Z,6.30
2017-11-04T04:34:36.996Z,6.30
2017-11-04T04:37:04.053Z,6.30
2017-11-04T04:39:30.348Z,6.30
2017-11-04T04:41:56.633Z,6.40
2017-11-04T04:44:23.011Z,6.40
2017-11-04T04:46:49.433Z,6.40
2017-11-04T04:49:15.751Z,6.50
2017-11-04T04:51:42.032Z,6.50
2017-11-04T04:54:08.340Z,6.50
2017-11-04T04:56:35.373Z,6.60
2017-11-04T04:59:02.496Z,6.60
2017-11-04T05:01:28.941Z,6.60
2017-11-04T05:03:55.191Z,6.60
2017-11-04T05:06:21.482Z,6.60
2017-11-04T05:08:47.789Z,6.70
2017-11-04T05:11:14.085Z,6.80
2017-11-04T05:13:41.180Z,7.00
2017-11-04T05:16:07.489Z,7.00
2017-11-04T05:18:33.756Z,7.20
2017-11-04T05:21:00.068Z,7.30
2017-11-04T05:23:26.353Z,7.40
2017-11-04T05:25:53.368Z,7.50
2017-11-04T05:28:19.758Z,7.50
2017-11-04T05:30:46.041Z,7.60
2017-11-04T05:33:12.367Z,7.60
2017-11-04T05:35:38.656Z,7.70
2017-11-04T05:38:05.156Z,7.80
2017-11-04T05:40:32.167Z,7.90
2017-11-04T05:42:58.480Z,7.90
2017-11-04T05:45:24.768Z,7.90
2017-11-04T05:47:51.877Z,8.00
2017-11-04T05:50:18.200Z,8.00
2017-11-04T05:52:44.497Z,8.00
2017-11-04T05:55:10.799Z,8.00
2017-11-04T05:57:37.815Z,8.00
2017-11-04T06:00:04.128Z,8.00
2017-11-04T06:02:30.424Z,7.90
2017-11-04T06:04:56.809Z,7.90
2017-11-04T06:07:23.095Z,7.80
2017-11-04T06:09:49.405Z,7.80
2017-11-04T06:12:16.470Z,7.80
2017-11-04T06:14:42.801Z,7.80
2017-11-04T06:17:09.145Z,7.80
2017-11-04T06:19:35.588Z,7.80
2017-11-04T06:22:01.892Z,7.90
2017-11-04T06:24:28.176Z,7.90
2017-11-04T06:26:54.461Z,7.90
2017-11-04T06:29:20.761Z,7.90
2017-11-04T06:31:47.817Z,7.90
2017-11-04T06:34:14.880Z,8.00
2017-11-04T06:36:41.240Z,7.90
2017-11-04T06:39:07.556Z,8.00
2017-11-04T06:41:33.821Z,8.00
2017-11-04T06:44:00.128Z,8.10
2017-11-04T06:46:26.437Z,8.20
2017-11-04T06:48:52.772Z,8.20
2017-11-04T06:51:19.063Z,8.30
2017-11-04T06:53:46.144Z,8.40
2017-11-04T06:56:12.607Z,8.40
2017-11-04T06:58:38.933Z,8.50
2017-11-04T07:01:05.400Z,8.60
2017-11-04T07:03:32.428Z,8.70
2017-11-04T07:05:58.729Z,8.70
2017-11-04T07:08:25.048Z,8.80
2017-11-04T07:10:51.384Z,8.90
2017-11-04T07:13:17.680Z,8.90
2017-11-04T07:15:44.752Z,9.00
2017-11-04T07:18:11.201Z,9.00
2017-11-04T07:20:37.489Z,9.10
2017-11-04T07:23:04.629Z,9.20
2017-11-04T07:25:31.680Z,9.20
2017-11-04T07:27:58.752Z,9.30
2017-11-04T07:30:25.026Z,9.30
2017-11-04T07:32:51.340Z,9.60
2017-11-04T07:35:17.621Z,9.90
2017-11-04T07:37:44.670Z,10.20
2017-11-04T07:40:11.096Z,10.20
2017-11-04T07:42:38.136Z,10.50
2017-11-04T07:45:05.180Z,10.50
2017-11-04T07:47:32.272Z,10.50
2017-11-04T07:49:58.609Z,10.50
2017-11-04T07:52:24.953Z,10.50
2017-11-04T07:54:51.301Z,10.50
2017-11-04T07:57:17.588Z,10.50
2017-11-04T07:59:43.904Z,10.50
2017-11-04T08:02:10.221Z,10.50
2017-11-04T08:04:37.291Z,10.40
2017-11-04T08:07:03.593Z,10.50
2017-11-04T08:09:30.656Z,10.40
2017-11-04T08:11:57.708Z,10.40
2017-11-04T08:14:24.075Z,10.40
2017-11-04T08:16:50.399Z,10.40
2017-11-04T08:19:16.760Z,10.40
2017-11-04T08:21:43.085Z,10.40
2017-11-04T08:24:09.596Z,10.40
2017-11-04T08:26:35.934Z,10.50
2017-11-04T08:29:02.256Z,10.60
2017-11-04T08:31:28.781Z,10.70
2017-11-04T08:33:55.113Z,10.70
2017-11-04T08:36:21.437Z,10.80
2017-11-04T08:38:47.758Z,10.80
2017-11-04T08:41:14.060Z,11.00
2017-11-04T08:43:41.132Z,11.10
2017-11-04T08:46:07.452Z,11.00
2017-11-04T08:48:34.599Z,11.20
2017-11-04T08:51:01.636Z,11.20
2017-11-04T08:53:28.752Z,11.20
2017-11-04T08:55:55.063Z,11.20
2017-11-04T08:58:21.367Z,11.30
2017-11-04T09:00:47.685Z,11.40
2017-11-04T09:03:14.752Z,11.50
2017-11-04T09:05:41.104Z,11.50
2017-11-04T09:08:07.388Z,11.50
2017-11-04T09:10:34.428Z,11.40
2017-11-04T09:13:01.495Z,11.40
2017-11-04T09:15:27.862Z,11.30
2017-11-04T09:17:54.180Z,11.30
2017-11-04T09:20:20.524Z,11.40
2017-11-04T09:22:46.880Z,11.40
2017-11-04T09:25:13.176Z,11.30
2017-11-04T09:27:39.527Z,11.30
2017-11-04T09:30:05.824Z,11.40
2017-11-04T09:32:32.318Z,11.40
2017-11-04T09:34:58.603Z,11.40
2017-11-04T09:37:24.918Z,11.40
2017-11-04T09:39:51.242Z,11.50
2017-11-04T09:42:17.613Z,11.50
2017-11-04T09:44:43.944Z,11.60
2017-11-04T09:47:10.253Z,11.60
2017-11-04T09:49:36.640Z,11.60
2017-11-04T09:52:03.661Z,11.70
2017-11-04T09:54:30.164Z,11.70
2017-11-04T09:56:56.460Z,11.80
2017-11-04T09:59:23.628Z,12.00
2017-11-04T10:01:49.934Z,12.00
2017-11-04T10:04:17.176Z,12.30
2017-11-04T10:06:44.247Z,12.50
2017-11-04T10:09:10.548Z,12.40
2017-11-04T10:11:37.666Z,12.90
2017-11-04T10:14:04.012Z,12.80
2017-11-04T10:16:30.316Z,13.40
2017-11-04T10:18:56.689Z,14.10
2017-11-04T10:21:23.733Z,15.00
2017-11-04T10:23:50.928Z,15.20
2017-11-04T10:26:17.244Z,15.20
2017-11-04T10:28:43.601Z,15.00
2017-11-04T10:31:09.956Z,14.70
2017-11-04T10:33:36.291Z,14.50
2017-11-04T10:36:03.320Z,14.30
2017-11-04T10:38:29.830Z,14.30
2017-11-04T10:40:56.121Z,14.40
2017-11-04T10:43:23.237Z,14.70
2017-11-04T10:45:49.545Z,14.70
2017-11-04T10:48:15.857Z,14.80
2017-11-04T10:50:42.416Z,14.90
2017-11-04T10:53:08.761Z,15.00
2017-11-04T10:55:35.127Z,15.10
2017-11-04T10:58:02.205Z,15.10
2017-11-04T11:00:28.488Z,15.10
2017-11-04T11:02:54.847Z,15.00
2017-11-04T11:05:21.872Z,14.80
2017-11-04T11:07:48.924Z,14.80
2017-11-04T11:10:15.206Z,14.80
2017-11-04T11:12:41.540Z,14.90
2017-11-04T11:15:07.888Z,15.00
2017-11-04T11:17:34.180Z,15.10
2017-11-04T11:20:00.553Z,15.30
2017-11-04T11:22:26.959Z,15.40
2017-11-04T11:24:53.288Z,15.40
2017-11-04T11:27:19.732Z,15.40
2017-11-04T11:29:46.053Z,15.10
2017-11-04T11:32:12.352Z,14.90
2017-11-04T11:34:39.422Z,14.30
2017-11-04T11:37:05.705Z,14.30
2017-11-04T11:39:32.772Z,14.10
2017-11-04T11:41:59.862Z,14.10
2017-11-04T11:44:26.235Z,14.10
2017-11-04T11:46:53.320Z,14.40
2017-11-04T11:49:19.592Z,14.40
2017-11-04T11:51:46.841Z,14.40
2017-11-04T11:54:13.121Z,14.60
2017-11-04T11:56:39.423Z,14.70
2017-11-04T11:59:06.510Z,15.00
2017-11-04T12:01:32.852Z,15.00
2017-11-04T12:03:59.180Z,15.00
2017-11-04T12:06:25.515Z,15.00
2017-11-04T12:08:51.828Z,15.00
2017-11-04T12:11:18.136Z,15.00
2017-11-04T12:13:45.262Z,15.00
2017-11-04T12:16:11.583Z,15.00
2017-11-04T12:18:37.906Z,15.10
2017-11-04T12:21:04.209Z,15.10
2017-11-04T12:23:30.585Z,15.20
2017-11-04T12:25:56.860Z,15.20
2017-11-04T12:28:23.201Z,15.30
2017-11-04T12:30:49.512Z,15.40
2017-11-04T12:33:15.855Z,15.40
2017-11-04T12:35:42.206Z,15.40
2017-11-04T12:38:08.493Z,15.30
2017-11-04T12:40:35.727Z,15.30
2017-11-04T12:43:02.073Z,15.30
2017-11-04T12:45:28.465Z,15.40
2017-11-04T12:47:54.744Z,15.50
2017-11-04T12:50:21.778Z,15.60
2017-11-04T12:52:49.055Z,15.60
2017-11-04T12:55:15.379Z,15.60
2017-11-04T12:57:41.700Z,15.50
2017-11-04T13:00:08.733Z,15.20
2017-11-04T13:02:35.801Z,15.00
2017-11-04T13:05:02.086Z,15.00
2017-11-04T13:07:28.422Z,15.00
2017-11-04T13:09:54.705Z,14.90
2017-11-04T13:12:21.045Z,14.90
2017-11-04T13:14:47.572Z,14.80
2017-11-04T13:17:13.927Z,14.80
2017-11-04T13:19:40.229Z,14.70
2017-11-04T13:22:06.557Z,14.70
2017-11-04T13:24:32.888Z,14.60
2017-11-04T13:26:59.184Z,14.50
2017-11-04T13:29:26.276Z,14.30
2017-11-04T13:31:52.581Z,14.30
2017-11-04T13:34:19.636Z,13.90
2017-11-04T13:36:45.943Z,13.90
2017-11-04T13:39:13.039Z,13.50
2017-11-04T13:41:39.366Z,13.50
2017-11-04T13:44:05.670Z,13.30
2017-11-04T13:46:32.057Z,13.20
2017-11-04T13:48:58.346Z,13.20
2017-11-04T13:51:24.695Z,13.10
2017-11-04T13:53:51.204Z,13.20
2017-11-04T13:56:17.576Z,13.20
2017-11-04T13:58:43.946Z,13.30
2017-11-04T14:01:10.984Z,13.30
2017-11-04T14:03:38.049Z,13.40
2017-11-04T14:06:05.365Z,13.50
2017-11-04T14:08:31.706Z,13.40
2017-11-04T14:10:58.777Z,13.50
2017-11-04T14:13:25.881Z,13.50
2017-11-04T14:15:52.214Z,13.50
2017-11-04T14:18:18.929Z,13.60
2017-11-04T14:20:45.362Z,13.60
2017-11-04T14:23:11.681Z,13.60
2017-11-04T14:25:38.019Z,13.50
2017-11-04T14:28:04.315Z,13.50
2017-11-04T14:30:31.377Z,13.40
2017-11-04T14:32:57.664Z,13.40
2017-11-04T14:35:23.984Z,13.40
2017-11-04T14:37:50.340Z,13.30
2017-11-04T14:40:17.404Z,13.20
2017-11-04T14:42:44.612Z,13.20
2017-11-04T14:45:12.840Z,13.20
2017-11-04T14:47:39.222Z,13.10
2017-11-04T14:50:05.571Z,13.10
2017-11-04T14:52:31.885Z,13.00
2017-11-04T14:54:58.161Z,13.00
2017-11-04T14:57:24.474Z,12.90
2017-11-04T14:59:51.556Z,12.90
2017-11-04T15:02:17.853Z,12.90
2017-11-04T15:04:45.132Z,13.00
2017-11-04T15:07:11.513Z,12.90
2017-11-04T15:09:38.720Z,13.00
2017-11-04T15:12:05.136Z,13.00
2017-11-04T15:14:31.542Z,13.00
2017-11-04T15:16:57.818Z,13.00
2017-11-04T15:19:24.141Z,13.00
2017-11-04T15:21:50.478Z,13.00
2017-11-04T15:24:17.032Z,12.90
2017-11-04T15:26:43.426Z,12.80
2017-11-04T15:29:09.930Z,12.80
2017-11-04T15:31:36.247Z,12.80
2017-11-04T15:34:02.794Z,12.70
2017-11-04T15:36:29.133Z,12.60
2017-11-04T15:38:56.176Z,12.30
2017-11-04T15:41:23.236Z,12.20
2017-11-04T15:43:50.265Z,12.10
2017-11-04T15:46:16.662Z,12.10
2017-11-04T15:48:42.978Z,12.00
2017-11-04T15:51:09.286Z,11.90
2017-11-04T15:53:36.727Z,11.80
2017-11-04T15:56:03.761Z,11.70
2017-11-04T15:58:30.105Z,11.70
2017-11-04T16:00:57.169Z,11.60
2017-11-04T16:03:23.503Z,11.60
2017-11-04T16:05:49.810Z,11.60
2017-11-04T16:08:16.913Z,11.40
2017-11-04T16:10:43.235Z,11.30
2017-11-04T16:13:09.681Z,11.30
2017-11-04T16:15:36.037Z,11.20
2017-11-04T16:18:02.490Z,11.10
2017-11-04T16:20:29.562Z,11.00
2017-11-04T16:22:55.888Z,11.00
2017-11-04T16:25:22.217Z,11.00
2017-11-04T16:27:48.622Z,10.90
2017-11-04T16:30:15.657Z,10.80
2017-11-04T16:32:42.000Z,10.70
2017-11-04T16:35:09.186Z,10.60
2017-11-04T16:37:35.549Z,10.60
2017-11-04T16:40:01.900Z,10.60
2017-11-04T16:42:28.246Z,10.50
2017-11-04T16:44:55.294Z,10.30
2017-11-04T16:47:22.347Z,10.30
2017-11-04T16:49:49.409Z,10.20
2017-11-04T16:52:15.754Z,10.20
2017-11-04T16:54:42.073Z,10.20
2017-11-04T16:57:08.384Z,10.10
2017-11-04T16:59:35.429Z,10.00
2017-11-04T17:02:02.509Z,9.90
2017-11-04T17:04:28.796Z,9.90
2017-11-04T17:06:55.099Z,9.80
2017-11-04T17:09:21.464Z,9.80
2017-11-04T17:11:48.498Z,9.60
2017-11-04T17:14:14.881Z,9.60
2017-11-04T17:16:41.181Z,9.60
2017-11-04T17:19:08.255Z,9.50
2017-11-04T17:21:34.610Z,9.50
2017-11-04T17:24:00.915Z,9.50
2017-11-04T17:26:27.333Z,9.50
2017-11-04T17:28:54.368Z,9.40
2017-11-04T17:31:21.448Z,9.50
2017-11-04T17:33:47.744Z,9.50
2017-11-04T17:36:14.841Z,9.60
2017-11-04T17:38:43.987Z,9.60
2017-11-04T17:41:11.065Z,9.60
2017-11-04T17:43:37.558Z,9.60
2017-11-04T17:46:03.877Z,9.60
2017-11-04T17:48:30.225Z,9.60
2017-11-04T17:51:04.794Z,9.70
2017-11-04T17:53:31.164Z,9.70
2017-11-04T17:55:59.586Z,9.70
2017-11-04T17:58:25.946Z,9.60
2017-11-04T18:00:52.489Z,9.60
2017-11-04T18:03:19.009Z,9.60
2017-11-04T18:05:45.325Z,9.50
2017-11-04T18:08:11.692Z,9.50
2017-11-04T18:10:38.026Z,9.50
2017-11-04T18:13:04.353Z,9.50
2017-11-04T18:15:30.777Z,9.40
2017-11-04T18:17:57.096Z,9.40
2017-11-04T18:20:23.978Z,9.40
2017-11-04T18:22:51.688Z,9.40
2017-11-04T18:25:18.009Z,9.30
2017-11-04T18:27:44.346Z,9.30
2017-11-04T18:30:10.777Z,9.20
2017-11-04T18:32:37.185Z,9.20
2017-11-04T18:35:04.225Z,9.10
2017-11-04T18:37:32.486Z,9.10
2017-11-04T18:39:58.792Z,9.10
2017-11-04T18:42:25.198Z,9.10
2017-11-04T18:44:51.529Z,9.00
2017-11-04T18:47:17.851Z,9.00
2017-11-04T18:49:44.179Z,9.10
2017-11-04T18:52:10.490Z,9.10
2017-11-04T18:54:37.603Z,9.10
2017-11-04T18:57:03.960Z,9.10
2017-11-04T18:59:30.276Z,9.10
2017-11-04T19:01:56.640Z,8.90
2017-11-04T19:04:23.712Z,8.80
2017-11-04T19:06:50.073Z,8.80
2017-11-04T19:09:16.476Z,8.70
2017-11-04T19:11:42.829Z,8.70
2017-11-04T19:14:09.157Z,8.60
2017-11-04T19:16:39.555Z,8.70
2017-11-04T19:19:06.611Z,8.70
2017-11-04T19:21:34.040Z,8.80
2017-11-04T19:24:01.645Z,8.80
2017-11-04T19:26:28.099Z,8.80
2017-11-04T19:28:54.416Z,8.70
2017-11-04T19:31:20.872Z,8.60
2017-11-04T19:33:47.218Z,8.60
2017-11-04T19:36:14.289Z,8.50
2017-11-04T19:38:40.605Z,8.50
2017-11-04T19:41:07.668Z,8.50
2017-11-04T19:43:34.022Z,8.50
2017-11-04T19:46:00.349Z,8.50
2017-11-04T19:48:26.708Z,8.60
2017-11-04T19:50:53.095Z,8.60
2017-11-04T19:53:20.205Z,8.50
2017-11-04T19:55:46.526Z,8.50
2017-11-04T19:58:12.900Z,8.40
2017-11-04T20:00:39.231Z,8.40
2017-11-04T20:03:05.559Z,8.40
2017-11-04T20:05:31.886Z,8.40
2017-11-04T20:07:58.220Z,8.40
2017-11-04T20:10:24.613Z,8.40
2017-11-04T20:12:50.928Z,8.50
2017-11-04T20:15:17.301Z,8.60
2017-11-04T20:17:44.476Z,8.50
2017-11-04T20:20:10.788Z,8.40
2017-11-04T20:22:37.856Z,8.40
2017-11-04T20:25:04.189Z,8.40
2017-11-04T20:27:30.625Z,8.40
2017-11-04T20:29:56.960Z,8.40
2017-11-04T20:32:23.358Z,8.50
2017-11-04T20:34:50.468Z,8.50
2017-11-04T20:37:18.286Z,8.40
2017-11-04T20:39:44.615Z,8.40
2017-11-04T20:42:10.932Z,8.30
2017-11-04T20:44:38.047Z,8.20
2017-11-04T20:47:05.278Z,8.20
2017-11-04T20:49:31.617Z,8.10
2017-11-04T20:51:58.014Z,8.10
2017-11-04T20:54:24.369Z,8.10
2017-11-04T20:56:50.744Z,8.10
2017-11-04T20:59:17.791Z,8.00
2017-11-04T21:01:44.923Z,8.00
2017-11-04T21:04:11.293Z,8.00
2017-11-04T21:06:37.629Z,8.00
2017-11-04T21:09:03.975Z,8.00
2017-11-04T21:11:30.387Z,8.00
2017-11-04T21:13:57.017Z,8.00
2017-11-04T21:16:23.389Z,7.90
2017-11-04T21:18:49.694Z,8.00
2017-11-04T21:21:15.966Z,8.00
2017-11-04T21:23:42.277Z,8.00
2017-11-04T21:26:08.609Z,8.00
2017-11-04T21:28:34.925Z,8.10
2017-11-04T21:31:01.293Z,8.10
2017-11-04T21:33:27.610Z,8.10
2017-11-04T21:35:53.934Z,8.10
2017-11-04T21:38:20.274Z,8.10
2017-11-04T21:40:46.605Z,8.10
2017-11-04T21:43:12.930Z,8.00
2017-11-04T21:45:39.226Z,8.00
2017-11-04T21:48:05.743Z,7.90
2017-11-04T21:50:32.858Z,8.10
2017-11-04T21:52:59.220Z,8.10
2017-11-04T21:55:26.294Z,8.20
2017-11-04T21:57:52.576Z,8.10
2017-11-04T22:00:18.893Z,8.10
2017-11-04T22:02:45.249Z,8.10
2017-11-04T22:05:12.313Z,8.10
2017-11-04T22:07:38.665Z,8.10
2017-11-04T22:10:05.022Z,8.20
2017-11-04T22:12:32.049Z,8.00
2017-11-04T22:14:58.678Z,8.10
2017-11-04T22:17:25.048Z,8.00
2017-11-04T22:19:51.488Z,8.00
2017-11-04T22:22:17.837Z,8.00
2017-11-04T22:24:44.935Z,7.90
2017-11-04T22:27:11.319Z,7.90
2017-11-04T22:29:38.420Z,8.00
2017-11-04T22:32:04.748Z,8.00
2017-11-04T22:34:31.168Z,8.00
2017-11-04T22:36:57.464Z,7.90
2017-11-04T22:39:24.525Z,7.80
2017-11-04T22:41:50.840Z,7.80
2017-11-04T22:44:18.220Z,7.60
2017-11-04T22:46:44.526Z,7.60
2017-11-04T22:49:11.577Z,7.70
2017-11-04T22:51:38.640Z,7.70
2017-11-04T22:54:04.916Z,7.60
2017-11-04T22:56:31.263Z,7.60
2017-11-04T22:58:57.548Z,7.60
2017-11-04T23:01:23.869Z,7.50
2017-11-04T23:03:50.148Z,7.50
2017-11-04T23:06:16.486Z,7.50
2017-11-04T23:08:42.874Z,7.50
2017-11-04T23:11:09.204Z,7.50
2017-11-04T23:13:35.577Z,7.40
2017-11-04T23:16:01.932Z,7.50
2017-11-04T23:18:28.292Z,7.40
2017-11-04T23:20:54.592Z,7.40
2017-11-04T23:23:21.682Z,7.50
2017-11-04T23:25:48.017Z,7.50
2017-11-04T23:28:14.327Z,7.50
2017-11-04T23:30:40.673Z,7.60
2017-11-04T23:33:07.088Z,7.60
2017-11-04T23:35:33.424Z,7.50
2017-11-04T23:37:59.757Z,7.50
2017-11-04T23:40:26.154Z,7.40
2017-11-04T23:42:53.265Z,7.50
2017-11-04T23:45:19.633Z,7.50
2017-11-04T23:47:46.698Z,7.50
2017-11-04T23:50:13.009Z,7.50
2017-11-04T23:52:40.060Z,7.50
2017-11-04T23:55:07.174Z,7.50
2017-11-04T23:57:33.492Z,7.40
2017-11-04T23:59:59.823Z,7.40
